ENLK

Leknes Airport

Leknes, Norway
METAR ENLK 221150Z 16006KT 9999 FEW020 SCT030 12/08 Q0968
Observed Flight Rules
Sep-22 @ 11:50 UTC (3 hours ago) Visual Flight Rules
Wind Visibility Clouds
160° at 6 knots 10,000+ meters
Temperatures Readings
Current 12°C / 54°F
Dewpoint 8°C / 46°F
Humidity 77%
Altimeter 28.58" Hg
Pressure 968 hPa
Elevation 26
METAR ENLK 221150Z 16006KT 9999 FEW020 SCT030 12/08 Q0968
Observed Flight Rules
Sep-22 @ 11:50 UTC
(3 hours ago)
VFR
Wind Visibility
160° at 6 knots 10,000+ meters
Clouds
Temperature Dewpoint
12°C / 54°F 8°C / 46°F
Humidity Altimeter Pressure
77% 28.58" Hg 968 hPa